Station info - map view · info · telemetry · weather · raw · status · beacons · messages · bulletins · browse · moving · my account
Callsign, ship name or locator: Clear       
It is possible to search using wildcards (*?) after a prefix. Example: OH*
APRS station LA3HX-11 - show graphs
Map loading...
Comment: Online
Location: 59°54.10' N 10°50.84' E - locator JO59KV16QJ - show map - static map
3.6 miles East bearing 102° from Oslo, Oslo, Oslo County, Norway [?]
4.2 miles Southwest bearing 241° from Kjenn, Lørenskog, Akershus county, Norway
7.7 miles West bearing 257° from Fjerdingby, Rælingen, Akershus county, Norway
24.8 miles Northeast bearing 64° from Drammen, Drammen, Buskerud county, Norway
Last position: 2020-02-18 08:25:02 EST (2m47s ago)
2020-02-18 14:25:02 CET local time at Oslo, Norway [?]
Altitude: 741 ft
Course: 359°
Speed: 1 MPH
Last telemetry: 2020-02-18 08:15:41 EST (12m8s ago) – show telemetry
Battery: 100 Percent, Charging/AC: 48 Charge/On/Off, GPS+Sat: 63 Sats/On/Off, A4: 500 N/A, A5: 0 N/A
 A/C     Charging     GPS     B4     B5     B6     B7     B8 
Device: KJ4ERJ: APRSIS32 (software, Windows)
Last path: LA3HX-11>APWW10 via TCPIP*,qAC,T2UKRAINE
Positions stored: 36224
Packet rate: 214 seconds between packets on average during 10504 seconds.
Other SSIDs: LA3HX LA3HX-10 LA3HX-3 LA3HX-7 LA3HX-8 LA3HX-9
APRS igate – Statistics for 2020-02:
Stations heard directly: 45 on radio path – show map
Last heard a station directly: 2020-02-17 08:49:15 EST (23h38m ago)
Position packets heard directly: 1000 on radio path
Position packets sent to APRS-IS: 1117 – show map
Stations near current position of LA3HX-11 - show more
callsign distance last heard - EST      callsign distance last heard - EST
LA3HX-929.3 yards 135°2020-02-18 08:18:38 LA3HX-330.5 yards 270°2020-02-09 06:27:55
LA3HX36.1 yards 303°2020-02-18 08:25:06 LA3HX-8106.9 yards 319°2020-02-02 10:39:04
LE1ATJ380.5 yards 25°2020-02-15 07:46:56 LE1CTB395.1 yards 136°2020-02-15 09:00:56
LE1CTC407.8 yards 27°2020-02-15 10:05:13 LE1AUS407.8 yards 27°2020-02-15 07:26:02
LE1CTE413.1 yards 22°2020-02-15 07:46:51 LE1CTL417.1 yards 23°2020-02-15 08:05:58
LE1AUM421.2 yards 24°2020-02-15 07:28:52 LE1ASO421.2 yards 24°2020-02-15 07:37:30
LE1ATC425.3 yards 25°2020-02-15 07:48:42 LE1CTN425.3 yards 25°2020-02-15 08:29:21
LE1AUQ425.3 yards 25°2020-02-15 11:05:20 LE1ASK425.3 yards 25°2020-02-15 09:01:00
LE1ASF429.1 yards 19°2020-02-15 07:23:53 LE1ASG434.6 yards 28°2020-02-15 10:44:53
LE1ATH436.2 yards 22°2020-02-15 08:11:00 LE1AUP436.2 yards 22°2020-02-15 07:39:24
Stations heard directly by LA3HX-11
callsign pkts first heard - EST last heard longest (rx => tx) longest at - EST
LA7DLA-9 2 2020-02-10 01:15:34 2020-02-10 01:16:13 JO59GV > JO59KV 11.2 miles 265° 2020-02-10 01:15:34
LA3NUA-7 1 2020-02-14 08:18:25 2020-02-14 08:18:25 JO59GV > JO59KV 11.5 miles 264° 2020-02-14 08:18:25
LE1CTE 2 2020-02-15 07:36:58 2020-02-15 07:39:40 JO59KV > JO59KV 455.2 yards 21° 2020-02-15 07:39:40
LE1CTC 8 2020-02-15 04:24:37 2020-02-15 10:02:19 JO59KV > JO59KV 1.3 miles 115° 2020-02-15 05:05:06
LE1CTD 4 2020-02-15 07:22:57 2020-02-15 08:04:00 JO59KV > JO59KV 526.7 yards 23° 2020-02-15 08:04:00
LE1CTA 9 2020-02-15 05:02:43 2020-02-15 08:17:13 JO59KV > JO59KV 1.3 miles 113° 2020-02-15 05:02:43
LE1ATF 39 2020-02-15 05:23:42 2020-02-15 07:48:10 JO59KV > JO59KV 0.4 miles 28° 2020-02-15 05:37:16
LE1ATB 75 2020-02-15 05:21:17 2020-02-15 07:50:33 JO59KV > JO59KV 0.3 miles 29° 2020-02-15 07:13:18
LE1ATC 98 2020-02-15 05:21:26 2020-02-15 07:48:42 JO59KW > JO59KV 3.2 miles 359° 2020-02-15 06:05:28
LE1ATA 88 2020-02-15 05:20:54 2020-02-15 07:47:23 JO59KW > JO59KV 2.9 miles 23° 2020-02-15 06:31:14
LE1ATH 5 2020-02-15 04:10:54 2020-02-15 08:11:00 JO59KV > JO59KV 1.3 miles 123° 2020-02-15 05:52:31
LE1ATE 85 2020-02-15 05:37:30 2020-02-15 07:47:41 JO59KW > JO59KV 3.8 miles 23° 2020-02-15 06:31:39
LE1ATD 83 2020-02-15 05:40:13 2020-02-15 07:47:43 JP50LA > JO59KV 7.4 miles 24° 2020-02-15 06:33:53
LE1ATJ 19 2020-02-15 04:13:47 2020-02-15 07:45:41 JO59KV > JO59KV 1.5 miles 130° 2020-02-15 06:13:31
LE1ATI 2 2020-02-15 04:43:59 2020-02-15 04:44:39 JO59KV > JO59KV 1.4 miles 123° 2020-02-15 04:44:39
LE1ATG 75 2020-02-15 05:20:24 2020-02-15 07:48:08 JO59KV > JO59KV 0.4 miles 23° 2020-02-15 06:28:35
LE1AUH 4 2020-02-15 05:29:04 2020-02-15 05:45:43 JO59KV > JO59KV 463.0 yards 23° 2020-02-15 05:45:43
LE1CTI 16 2020-02-15 05:41:47 2020-02-15 07:51:31 JO59KV > JO59KV 0.3 miles 23° 2020-02-15 06:27:47
LE1CTN 4 2020-02-15 04:36:46 2020-02-15 08:29:21 JO59KV > JO59KV 1.8 miles 131° 2020-02-15 06:15:53
LE1CTF 23 2020-02-15 05:36:21 2020-02-15 08:14:12 JO59KV > JO59KV 504.8 yards 22° 2020-02-15 06:32:47
LE1CTJ 31 2020-02-15 02:52:52 2020-02-15 10:54:30 JO59KV > JO59KV 1.6 miles 117° 2020-02-15 05:39:58
LE1CTL 5 2020-02-15 03:58:01 2020-02-15 08:05:41 JO59KV > JO59KV 498.6 yards 27° 2020-02-15 04:01:35
LE1CTR 2 2020-02-15 04:02:56 2020-02-15 05:27:13 JO59KV > JO59KV 1.5 miles 126° 2020-02-15 05:27:13
LE1AUO 6 2020-02-15 02:53:33 2020-02-15 07:28:29 JO59KV > JO59KV 485.8 yards 23° 2020-02-15 07:28:29
LE1AUM 46 2020-02-15 02:35:51 2020-02-15 07:28:52 JO59KV > JO59KV 1.5 miles 122° 2020-02-15 04:57:31
LE1AUN 9 2020-02-15 05:17:40 2020-02-15 07:38:35 JO59KV > JO59KV 1.7 miles 122° 2020-02-15 05:17:40
LE1ASA 14 2020-02-15 03:57:27 2020-02-15 08:30:19 JO59KV > JO59KV 1.5 miles 129° 2020-02-15 05:34:31
LE1AUS 13 2020-02-15 02:55:44 2020-02-15 07:26:02 JO59KV > JO59KV 504.8 yards 22° 2020-02-15 03:43:26
LE1AUR 9 2020-02-15 03:28:34 2020-02-15 07:44:22 JO59KV > JO59KV 490.0 yards 24° 2020-02-15 07:44:22
LE1AUQ 9 2020-02-15 04:04:23 2020-02-15 11:05:20 JO59KV > JO59KV 1.6 miles 122° 2020-02-15 05:39:35
LE1AUP 8 2020-02-15 02:44:53 2020-02-15 07:39:24 JO59KV > JO59KV 508.9 yards 24° 2020-02-15 03:28:56
LE1ASB 2 2020-02-15 03:52:48 2020-02-15 04:45:36 JO59KV > JO59KV 471.3 yards 26° 2020-02-15 04:45:36
LE1CTT 9 2020-02-15 03:30:45 2020-02-15 07:18:31 JO59KV > JO59KV 501.2 yards 21° 2020-02-15 03:45:45
LE1CTQ 23 2020-02-15 06:15:50 2020-02-15 08:16:35 JO59KV > JO59KV 504.8 yards 22° 2020-02-15 06:29:49
LE1CTP 15 2020-02-15 02:53:15 2020-02-15 11:11:28 JO59KV > JO59KV 490.0 yards 24° 2020-02-15 11:11:28
LA3HX-3 37 2020-02-09 02:32:37 2020-02-09 06:26:52 JO59JV > JO59KV 1.5 miles 251° 2020-02-09 03:10:21
LE1ASK 48 2020-02-15 05:24:51 2020-02-15 08:16:06 JO59KV > JO59KV 471.3 yards 26° 2020-02-15 08:16:06
LE1ASG 10 2020-02-15 03:29:16 2020-02-15 10:44:53 JO59KV > JO59KV 1.7 miles 116° 2020-02-15 09:28:10
LE1ASF 3 2020-02-15 03:44:43 2020-02-15 07:23:37 JO59KV > JO59KV 426.7 yards 18° 2020-02-15 07:23:37
LE1ASO 11 2020-02-15 03:27:49 2020-02-15 07:37:12 JO59KV > JO59KV 0.9 miles 148° 2020-02-15 04:32:03
LE1AUL 23 2020-02-15 05:36:49 2020-02-15 07:48:32 JO59KV > JO59KV 504.8 yards 22° 2020-02-15 06:45:46
LE1AUG 5 2020-02-15 04:05:35 2020-02-15 07:41:32 JO59KV > JO59KV 0.9 miles 157° 2020-02-15 07:36:25
LE1ASH 8 2020-02-15 05:37:28 2020-02-15 07:18:43 JO59KV > JO59KV 485.8 yards 23° 2020-02-15 07:18:43
LE1AUA 9 2020-02-15 02:57:12 2020-02-15 07:57:36 JO59KV > JO59KV 508.9 yards 24° 2020-02-15 07:57:36
LA3PK-8 3 2020-02-17 05:01:58 2020-02-17 08:49:15 JO59FT > JO59KV 15.0 miles 249° 2020-02-17 08:49:15

Only stations from which a position packet has been heard are shown here. The range statistics show some extra long hops, because some digipeaters do not correctly add themselves to the digipeater path. Please check the raw packets.
About this site
This page shows real-time information collected from the Automatic Position Reporting System Internet network (APRS-IS). APRS is used by amateur (ham) radio operators to transmit real-time position information, weather data, telemetry and messages over the radio. A vehicle equipped with a GPS receiver, a VHF transmitter or HF transceiver and a small computer device called a tracker transmits it's location, speed and course in a small data packet, which is then received by a nearby iGate receiving site which forwards the packet on the Internet. Systems connected to the Internet can send information on the APRS-IS without a radio transmitter, or collect and display information transmitted anywhere in the world.
User guide · FAQ · Blog · Discussion group · Linking to aprs.fi · AIS sites · Service status · Database statistics · Advertising on aprs.fi · Technical details · API · Change log · Planned changes · Credits and thanks · Terms Of Service · iPhone/iPad APRS